createdAt,value
2017-09-05T03:30:56.171Z,59.30
2017-09-05T03:33:23.769Z,58.60
2017-09-05T03:35:51.458Z,58.90
2017-09-05T03:38:19.091Z,59.20
2017-09-05T03:40:46.698Z,59.50
2017-09-05T03:43:14.641Z,60.00
2017-09-05T03:45:42.236Z,60.30
2017-09-05T03:48:09.849Z,60.10
2017-09-05T03:50:37.874Z,59.60
2017-09-05T03:53:05.468Z,59.60
2017-09-05T03:55:33.069Z,59.70
2017-09-05T03:58:00.676Z,59.50
2017-09-05T04:00:28.266Z,59.30
2017-09-05T04:02:56.316Z,58.90
2017-09-05T04:05:23.927Z,58.90
2017-09-05T04:07:51.568Z,58.90
2017-09-05T04:10:19.188Z,59.00
2017-09-05T04:12:46.808Z,58.90
2017-09-05T04:15:14.799Z,58.70
2017-09-05T04:17:42.412Z,59.00
2017-09-05T04:20:10.021Z,58.80
2017-09-05T04:22:37.643Z,58.80
2017-09-05T04:25:05.255Z,58.70
2017-09-05T04:27:33.208Z,58.80
2017-09-05T04:30:01.088Z,58.50
2017-09-05T04:32:28.685Z,58.20
2017-09-05T04:34:56.317Z,58.10
2017-09-05T04:37:23.927Z,58.30
2017-09-05T04:39:52.033Z,58.40
2017-09-05T04:42:19.649Z,58.00
2017-09-05T04:44:47.256Z,57.80
2017-09-05T04:47:15.216Z,57.70
2017-09-05T04:49:42.831Z,57.50
2017-09-05T04:52:10.428Z,57.50
2017-09-05T04:54:38.024Z,57.70
2017-09-05T04:57:05.655Z,57.90
2017-09-05T04:59:33.734Z,57.20
2017-09-05T05:02:01.348Z,57.50
2017-09-05T05:04:28.947Z,58.00
2017-09-05T05:06:56.587Z,58.30
2017-09-05T05:09:24.194Z,58.40
2017-09-05T05:11:52.155Z,58.40
2017-09-05T05:14:19.841Z,58.40
2017-09-05T05:16:48.214Z,57.90
2017-09-05T05:19:15.833Z,57.80
2017-09-05T05:21:43.438Z,57.60
2017-09-05T05:24:12.213Z,57.70
2017-09-05T05:26:39.812Z,57.70
2017-09-05T05:29:07.409Z,57.90
2017-09-05T05:31:35.029Z,57.90
2017-09-05T05:34:02.635Z,58.00
2017-09-05T05:36:30.615Z,58.10
2017-09-05T05:38:58.210Z,57.80
2017-09-05T05:41:25.802Z,57.30
2017-09-05T05:43:53.556Z,57.10
2017-09-05T05:46:21.155Z,57.20
2017-09-05T05:48:49.221Z,57.30
2017-09-05T05:51:16.833Z,57.30
2017-09-05T05:53:44.433Z,57.10
2017-09-05T05:56:12.111Z,56.90
2017-09-05T05:58:39.718Z,56.70
2017-09-05T06:01:07.680Z,57.10
2017-09-05T06:03:35.284Z,57.50
2017-09-05T06:06:02.891Z,58.20
2017-09-05T06:08:30.512Z,57.80
2017-09-05T06:10:58.127Z,56.90
2017-09-05T06:13:26.148Z,56.10
2017-09-05T06:15:53.777Z,56.90
2017-09-05T06:18:21.438Z,57.10
2017-09-05T06:20:49.058Z,56.90
2017-09-05T06:23:16.654Z,57.20
2017-09-05T06:25:44.610Z,57.50
2017-09-05T06:28:12.226Z,57.40
2017-09-05T06:30:39.821Z,56.80
2017-09-05T06:33:07.450Z,56.80
2017-09-05T06:35:35.059Z,57.20
2017-09-05T06:38:03.077Z,57.60
2017-09-05T06:40:30.689Z,58.70
2017-09-05T06:42:58.284Z,59.30
2017-09-05T06:45:25.909Z,59.10
2017-09-05T06:47:53.526Z,58.50
2017-09-05T06:50:21.599Z,58.20
2017-09-05T06:55:23.478Z,58.60
2017-09-05T06:57:51.091Z,58.30
2017-09-05T07:00:18.702Z,58.20
2017-09-05T07:02:46.333Z,58.40
2017-09-05T07:05:13.943Z,58.30
2017-09-05T07:07:41.909Z,57.70
2017-09-05T07:10:09.535Z,56.60
2017-09-05T07:12:37.138Z,56.40
2017-09-05T07:15:05.106Z,56.90
2017-09-05T07:17:32.706Z,56.70
2017-09-05T07:20:00.381Z,56.70
2017-09-05T07:22:28.022Z,56.70
2017-09-05T07:24:55.639Z,56.40
2017-09-05T07:27:24.406Z,56.40
2017-09-05T07:29:52.002Z,56.30
2017-09-05T07:32:19.597Z,56.60
2017-09-05T07:34:47.223Z,56.30
2017-09-05T07:37:14.817Z,57.40
2017-09-05T07:39:42.775Z,57.50
2017-09-05T07:42:10.401Z,56.70
2017-09-05T07:44:38.006Z,57.00
2017-09-05T07:47:05.651Z,56.90
2017-09-05T07:49:33.264Z,57.80
2017-09-05T07:52:01.229Z,57.70
2017-09-05T07:54:28.830Z,57.50
2017-09-05T07:56:56.548Z,58.00
2017-09-05T07:59:24.289Z,58.30
2017-09-05T08:01:51.896Z,58.00
2017-09-05T08:04:19.495Z,58.40
2017-09-05T08:06:47.139Z,59.80
2017-09-05T08:09:14.742Z,59.70
2017-09-05T08:11:42.720Z,60.60
2017-09-05T08:14:10.349Z,59.40
2017-09-05T08:16:37.975Z,58.30
2017-09-05T08:19:06.375Z,59.40
2017-09-05T08:21:33.997Z,59.30
2017-09-05T08:24:01.946Z,59.00
2017-09-05T08:26:29.593Z,58.00
2017-09-05T08:28:57.193Z,57.70
2017-09-05T08:31:24.805Z,57.60
2017-09-05T08:33:52.416Z,57.10
2017-09-05T08:36:20.472Z,56.10
2017-09-05T08:38:48.183Z,56.20
2017-09-05T08:41:15.791Z,56.00
2017-09-05T08:43:43.440Z,56.00
2017-09-05T08:46:11.050Z,56.10
2017-09-05T08:48:38.997Z,55.70
2017-09-05T08:51:06.599Z,54.20
2017-09-05T08:53:34.219Z,54.90
2017-09-05T08:56:02.017Z,54.40
2017-09-05T08:58:29.616Z,55.00
2017-09-05T09:00:57.555Z,54.40
2017-09-05T09:03:25.161Z,54.00
2017-09-05T09:05:52.752Z,54.70
2017-09-05T09:08:20.385Z,54.80
2017-09-05T09:10:47.985Z,53.60
2017-09-05T09:13:15.922Z,53.70
2017-09-05T09:15:43.523Z,53.10
2017-09-05T09:18:11.134Z,52.50
2017-09-05T09:20:38.751Z,50.70
2017-09-05T09:23:06.351Z,51.50
2017-09-05T09:25:34.323Z,51.60
2017-09-05T09:28:01.952Z,50.80
2017-09-05T09:30:29.564Z,51.60
2017-09-05T09:32:57.202Z,50.80
2017-09-05T09:35:24.795Z,50.30
2017-09-05T09:37:52.834Z,49.40
2017-09-05T09:40:20.432Z,48.50
2017-09-05T09:42:48.082Z,46.70
2017-09-05T09:45:15.693Z,44.10
2017-09-05T09:47:43.309Z,42.30
2017-09-05T09:50:11.272Z,39.30
2017-09-05T09:52:38.896Z,40.70
2017-09-05T09:55:06.513Z,42.80
2017-09-05T09:57:34.192Z,43.90
2017-09-05T10:00:01.800Z,45.50
2017-09-05T10:02:29.851Z,46.00
2017-09-05T10:04:57.450Z,47.40
2017-09-05T10:07:25.056Z,45.70
2017-09-05T10:09:52.683Z,41.10
2017-09-05T10:12:20.294Z,37.50
2017-09-05T10:14:48.274Z,33.00
2017-09-05T10:17:15.872Z,34.30
2017-09-05T10:19:43.484Z,35.40
2017-09-05T10:22:11.106Z,35.80
2017-09-05T10:24:38.715Z,35.20
2017-09-05T10:27:06.687Z,33.50
2017-09-05T10:29:34.290Z,35.20
2017-09-05T10:32:01.889Z,37.10
2017-09-05T10:34:29.657Z,39.50
2017-09-05T10:36:57.279Z,40.30
2017-09-05T10:39:25.285Z,38.20
2017-09-05T10:41:52.895Z,31.00
2017-09-05T10:44:20.511Z,28.20
2017-09-05T10:46:48.213Z,26.80
2017-09-05T10:49:15.929Z,25.00
2017-09-05T10:51:43.555Z,26.30
2017-09-05T10:54:11.614Z,29.70
2017-09-05T10:56:39.303Z,32.60
2017-09-05T10:59:06.912Z,35.50
2017-09-05T11:01:34.518Z,36.30
2017-09-05T11:04:02.384Z,36.50
2017-09-05T11:06:30.422Z,38.50
2017-09-05T11:08:58.022Z,40.60
2017-09-05T11:11:25.671Z,40.10
2017-09-05T11:13:53.317Z,38.00
2017-09-05T11:16:20.975Z,36.30
2017-09-05T11:18:49.002Z,37.60
2017-09-05T11:21:16.610Z,37.50
2017-09-05T11:23:44.214Z,37.90
2017-09-05T11:26:12.205Z,40.60
2017-09-05T11:28:39.824Z,41.10
2017-09-05T11:31:07.415Z,42.30
2017-09-05T11:33:35.146Z,42.60
2017-09-05T11:36:02.743Z,40.90
2017-09-05T11:38:30.737Z,38.30
2017-09-05T11:40:58.347Z,35.30
2017-09-05T11:43:25.963Z,35.40
2017-09-05T11:45:53.602Z,31.30
2017-09-05T11:48:21.212Z,28.40
2017-09-05T11:50:49.338Z,24.80
2017-09-05T11:53:16.951Z,24.20
2017-09-05T11:55:44.544Z,22.30
2017-09-05T11:58:12.158Z,21.30
2017-09-05T12:00:39.770Z,23.10
2017-09-05T12:03:07.755Z,26.40
2017-09-05T12:05:35.365Z,30.00
2017-09-05T12:08:02.973Z,33.00
2017-09-05T12:10:31.043Z,34.20
2017-09-05T12:12:58.656Z,36.30
2017-09-05T12:15:26.356Z,38.50
2017-09-05T12:17:54.313Z,39.30
2017-09-05T12:20:21.934Z,36.40
2017-09-05T12:22:49.595Z,35.00
2017-09-05T12:25:17.617Z,35.80
2017-09-05T12:27:45.217Z,36.90
2017-09-05T12:30:13.575Z,37.40
2017-09-05T12:32:41.634Z,38.80
2017-09-05T12:35:09.232Z,40.20
2017-09-05T12:37:36.833Z,41.30
2017-09-05T12:40:04.957Z,42.00
2017-09-05T12:42:32.544Z,42.60
2017-09-05T12:45:00.143Z,43.10
2017-09-05T12:47:27.784Z,43.00
2017-09-05T12:49:55.393Z,43.60
2017-09-05T12:52:23.443Z,43.30
2017-09-05T12:54:51.819Z,41.60
2017-09-05T12:57:19.422Z,41.70
2017-09-05T12:59:47.046Z,41.90
2017-09-05T13:02:14.644Z,42.80
2017-09-05T13:04:42.613Z,41.70
2017-09-05T13:07:10.218Z,42.10
2017-09-05T13:09:37.829Z,42.70
2017-09-05T13:12:05.466Z,43.80
2017-09-05T13:14:33.072Z,45.00
2017-09-05T13:17:01.084Z,45.90
2017-09-05T13:19:28.757Z,46.60
2017-09-05T13:21:57.158Z,45.20
2017-09-05T13:24:24.811Z,45.20
2017-09-05T13:26:52.428Z,43.80
2017-09-05T13:29:20.514Z,44.10
2017-09-05T13:31:48.125Z,43.50
2017-09-05T13:34:15.735Z,43.30
2017-09-05T13:36:43.713Z,42.70
2017-09-05T13:39:11.343Z,43.80
2017-09-05T13:41:38.962Z,44.10
2017-09-05T13:44:07.011Z,44.70
2017-09-05T13:46:34.630Z,45.10
2017-09-05T13:49:02.250Z,45.30
2017-09-05T13:51:29.867Z,44.20
2017-09-05T13:53:57.470Z,46.10
2017-09-05T13:56:25.503Z,47.20
2017-09-05T13:58:53.105Z,46.40
2017-09-05T14:01:20.710Z,46.80
2017-09-05T14:03:48.330Z,46.60
2017-09-05T14:06:15.941Z,46.20
2017-09-05T14:08:44.017Z,46.00
2017-09-05T14:11:11.821Z,45.90
2017-09-05T14:13:39.414Z,45.80
2017-09-05T14:16:07.034Z,46.40
2017-09-05T14:18:34.634Z,46.10
2017-09-05T14:21:02.754Z,46.10
2017-09-05T14:23:30.352Z,46.40
2017-09-05T14:25:57.953Z,46.70
2017-09-05T14:28:25.702Z,46.80
2017-09-05T14:30:53.338Z,47.10
2017-09-05T14:33:21.262Z,46.50
2017-09-05T14:35:48.861Z,45.70
2017-09-05T14:38:16.462Z,46.50
2017-09-05T14:40:44.100Z,47.20
2017-09-05T14:43:11.700Z,46.80
2017-09-05T14:45:39.670Z,46.50
2017-09-05T14:48:07.273Z,46.70
2017-09-05T14:50:34.869Z,46.70
2017-09-05T14:53:02.917Z,46.90
2017-09-05T14:55:30.526Z,45.80
2017-09-05T14:57:58.587Z,45.50
2017-09-05T15:00:26.191Z,46.20
2017-09-05T15:02:53.790Z,47.20
2017-09-05T15:05:21.398Z,48.10
2017-09-05T15:07:48.994Z,48.30
2017-09-05T15:10:16.903Z,48.20
2017-09-05T15:12:44.504Z,48.60
2017-09-05T15:15:12.135Z,49.20
2017-09-05T15:17:39.865Z,48.60
2017-09-05T15:20:07.476Z,48.30
2017-09-05T15:22:35.428Z,48.30
2017-09-05T15:25:03.095Z,48.90
2017-09-05T15:27:31.121Z,49.20
2017-09-05T15:29:58.818Z,50.10
2017-09-05T15:32:26.494Z,49.70
2017-09-05T15:34:55.789Z,49.20
2017-09-05T15:37:23.399Z,49.20
2017-09-05T15:39:51.097Z,49.30
2017-09-05T15:42:18.774Z,49.10
2017-09-05T15:44:46.394Z,49.20
2017-09-05T15:47:14.287Z,49.20
2017-09-05T15:49:41.908Z,49.20
2017-09-05T15:52:09.538Z,49.50
2017-09-05T15:54:37.163Z,50.10
2017-09-05T15:57:04.769Z,51.30
2017-09-05T15:59:32.806Z,51.60
2017-09-05T16:02:00.621Z,51.20
2017-09-05T16:04:28.254Z,51.00
2017-09-05T16:06:55.922Z,50.70
2017-09-05T16:09:23.532Z,51.50
2017-09-05T16:11:51.447Z,52.00
2017-09-05T16:14:19.127Z,51.50
2017-09-05T16:16:46.782Z,51.60
2017-09-05T16:19:16.686Z,52.00
2017-09-05T16:21:44.333Z,52.10
2017-09-05T16:24:11.944Z,52.20
2017-09-05T16:26:39.578Z,52.50
2017-09-05T16:29:07.184Z,52.10
2017-09-05T16:31:35.070Z,52.00
2017-09-05T16:34:02.678Z,52.00
2017-09-05T16:36:30.398Z,52.50
2017-09-05T16:38:58.375Z,52.10
2017-09-05T16:41:25.990Z,52.20
2017-09-05T16:43:53.624Z,52.70
2017-09-05T16:46:21.797Z,53.20
2017-09-05T16:48:49.408Z,53.70
2017-09-05T16:51:17.018Z,53.90
2017-09-05T16:53:44.624Z,54.00
2017-09-05T16:56:12.242Z,54.20
2017-09-05T16:58:39.851Z,55.00
2017-09-05T17:01:07.843Z,54.30
2017-09-05T17:03:35.447Z,54.40
2017-09-05T17:06:03.161Z,54.00
2017-09-05T17:08:30.828Z,54.20
2017-09-05T17:10:59.099Z,53.70
2017-09-05T17:13:27.136Z,54.60
2017-09-05T17:15:54.831Z,53.70
2017-09-05T17:18:22.494Z,54.00
2017-09-05T17:20:50.453Z,54.50
2017-09-05T17:23:18.938Z,54.90
2017-09-05T17:25:46.550Z,54.90
2017-09-05T17:28:14.497Z,54.80
2017-09-05T17:30:42.162Z,54.70
2017-09-05T17:33:09.861Z,54.90
2017-09-05T17:35:37.559Z,55.10
2017-09-05T17:38:05.626Z,55.20
2017-09-05T17:40:33.240Z,55.60
2017-09-05T17:43:00.890Z,56.10
2017-09-05T17:45:28.526Z,56.50
2017-09-05T17:47:56.926Z,58.10
2017-09-05T17:50:25.063Z,57.30
2017-09-05T17:52:52.671Z,57.80
2017-09-05T17:55:20.285Z,58.20
2017-09-05T17:57:47.946Z,58.40
2017-09-05T18:00:15.589Z,58.80
2017-09-05T18:02:43.614Z,59.00
2017-09-05T18:05:11.218Z,59.20
2017-09-05T18:07:38.838Z,59.30
2017-09-05T18:10:06.467Z,59.40
2017-09-05T18:12:34.083Z,59.70
2017-09-05T18:15:02.496Z,59.80
2017-09-05T18:17:30.181Z,60.00
2017-09-05T18:19:58.551Z,60.20
2017-09-05T18:22:26.188Z,60.00
2017-09-05T18:24:54.638Z,59.90
2017-09-05T18:27:22.609Z,60.00
2017-09-05T18:29:50.249Z,59.70
2017-09-05T18:32:17.892Z,59.50
2017-09-05T18:34:46.291Z,59.40
2017-09-05T18:37:13.896Z,59.30
2017-09-05T18:39:42.016Z,59.50
2017-09-05T18:42:10.358Z,59.70
2017-09-05T18:44:37.990Z,59.80
2017-09-05T18:47:05.649Z,60.00
2017-09-05T18:49:34.147Z,60.50
2017-09-05T18:52:02.292Z,60.60
2017-09-05T18:54:29.982Z,60.90
2017-09-05T18:56:57.640Z,61.10
2017-09-05T18:59:25.619Z,61.20
2017-09-05T19:01:53.304Z,61.60
2017-09-05T19:04:20.930Z,62.00
2017-09-05T19:06:48.937Z,61.80
2017-09-05T19:09:16.571Z,61.60
2017-09-05T19:11:44.191Z,61.50
2017-09-05T19:14:11.843Z,61.40
2017-09-05T19:16:39.534Z,61.40
2017-09-05T19:19:07.608Z,61.30
2017-09-05T19:21:35.278Z,61.20
2017-09-05T19:24:02.996Z,61.30
2017-09-05T19:26:30.674Z,61.60
2017-09-05T19:28:58.369Z,61.60
2017-09-05T19:31:26.380Z,61.50
2017-09-05T19:33:54.688Z,61.30
2017-09-05T19:36:22.380Z,61.40
2017-09-05T19:38:50.232Z,61.60
2017-09-05T19:41:17.853Z,61.50
2017-09-05T19:43:45.926Z,61.40
2017-09-05T19:46:14.406Z,61.60
2017-09-05T19:48:42.228Z,61.70
2017-09-05T19:51:10.282Z,61.90
2017-09-05T19:53:38.008Z,61.80
2017-09-05T19:56:05.637Z,61.70
2017-09-05T19:58:33.333Z,61.80
2017-09-05T20:01:00.983Z,62.10
2017-09-05T20:03:28.963Z,62.40
2017-09-05T20:05:56.585Z,62.30
2017-09-05T20:08:24.216Z,62.30
2017-09-05T20:10:51.872Z,62.30
2017-09-05T20:13:19.497Z,62.30
2017-09-05T20:15:47.495Z,62.40
2017-09-05T20:18:15.202Z,62.50
2017-09-05T20:20:42.806Z,62.50
2017-09-05T20:23:11.368Z,62.50
2017-09-05T20:25:38.990Z,62.70
2017-09-05T20:28:06.618Z,63.30
2017-09-05T20:30:34.532Z,62.60
2017-09-05T20:33:02.137Z,62.70
2017-09-05T20:35:30.091Z,62.70
2017-09-05T20:37:57.745Z,62.90
2017-09-05T20:40:25.372Z,62.20
2017-09-05T20:42:52.996Z,63.00
2017-09-05T20:45:20.624Z,63.40
2017-09-05T20:47:48.594Z,63.30
2017-09-05T20:50:16.198Z,63.40
2017-09-05T20:52:43.799Z,63.50
2017-09-05T20:55:11.783Z,63.30
2017-09-05T20:57:39.399Z,63.10
2017-09-05T21:00:07.375Z,63.00
2017-09-05T21:02:35.011Z,62.90
2017-09-05T21:05:02.640Z,63.40
2017-09-05T21:07:30.267Z,63.50
2017-09-05T21:09:57.934Z,63.50
2017-09-05T21:12:25.539Z,63.50
2017-09-05T21:14:53.163Z,63.30
2017-09-05T21:17:21.734Z,63.70
2017-09-05T21:19:49.404Z,64.00
2017-09-05T21:22:17.349Z,64.10
2017-09-05T21:24:44.968Z,64.30
2017-09-05T21:27:12.678Z,64.40
2017-09-05T21:29:40.323Z,64.70
2017-09-05T21:32:07.941Z,64.80
2017-09-05T21:34:36.013Z,64.90
2017-09-05T21:37:03.655Z,65.10
2017-09-05T21:39:31.268Z,65.20
2017-09-05T21:41:58.900Z,65.60
2017-09-05T21:44:26.511Z,65.80
2017-09-05T21:46:54.430Z,65.90
2017-09-05T21:49:22.043Z,65.90
2017-09-05T21:51:49.715Z,65.60
2017-09-05T21:54:17.374Z,65.10
2017-09-05T21:56:44.987Z,64.90
2017-09-05T21:59:13.640Z,65.00
2017-09-05T22:01:41.263Z,65.00
2017-09-05T22:04:08.863Z,65.00
2017-09-05T22:06:36.749Z,65.70
2017-09-05T22:09:04.431Z,65.70
2017-09-05T22:11:32.088Z,65.60
2017-09-05T22:14:05.500Z,65.40
2017-09-05T22:16:38.654Z,65.10
2017-09-05T22:19:12.131Z,65.00
2017-09-05T22:21:39.738Z,65.10
2017-09-05T22:24:07.342Z,65.20
2017-09-05T22:26:40.686Z,65.20
2017-09-05T22:29:10.060Z,65.20
